createdAt,value
2017-11-19T00:00:52.177Z,5.59
2017-11-19T00:03:27.597Z,5.58
2017-11-19T00:06:01.960Z,5.56
2017-11-19T00:08:36.665Z,5.56
2017-11-19T00:11:11.577Z,5.58
2017-11-19T00:13:46.457Z,5.55
2017-11-19T00:16:20.929Z,5.53
2017-11-19T00:18:56.013Z,5.54
2017-11-19T00:21:31.133Z,5.50
2017-11-19T00:24:05.841Z,5.46
2017-11-19T00:26:40.793Z,5.43
2017-11-19T00:29:15.093Z,5.45
2017-11-19T00:31:49.647Z,5.45
2017-11-19T00:34:24.804Z,5.42
2017-11-19T00:36:59.757Z,5.41
2017-11-19T00:39:34.108Z,5.41
2017-11-19T00:42:09.241Z,5.24
2017-11-19T00:44:44.021Z,5.34
2017-11-19T00:47:18.861Z,5.38
2017-11-19T00:49:53.544Z,5.43
2017-11-19T00:52:28.325Z,5.43
2017-11-19T00:55:03.137Z,5.46
2017-11-19T00:57:37.961Z,5.50
2017-11-19T01:00:12.714Z,5.52
2017-11-19T01:02:47.795Z,5.52
2017-11-19T01:05:23.132Z,5.54
2017-11-19T01:07:57.895Z,5.51
2017-11-19T01:10:32.829Z,5.50
2017-11-19T01:13:07.909Z,5.43
2017-11-19T01:15:42.609Z,5.37
2017-11-19T01:18:17.743Z,5.39
2017-11-19T01:20:52.413Z,5.34
2017-11-19T01:23:27.090Z,5.37
2017-11-19T01:26:01.969Z,5.36
2017-11-19T01:28:36.818Z,5.30
2017-11-19T01:31:11.378Z,5.30
2017-11-19T01:33:45.969Z,5.31
2017-11-19T01:36:20.502Z,5.32
2017-11-19T01:38:55.183Z,5.34
2017-11-19T01:41:30.319Z,5.31
2017-11-19T01:44:04.785Z,5.27
2017-11-19T01:46:39.697Z,5.25
2017-11-19T01:49:14.382Z,5.24
2017-11-19T01:51:49.076Z,5.27
2017-11-19T01:54:23.493Z,5.26
2017-11-19T01:56:58.461Z,5.25
2017-11-19T01:59:33.465Z,5.20
2017-11-19T02:02:08.337Z,5.13
2017-11-19T02:04:43.861Z,5.22
2017-11-19T02:07:19.193Z,5.23
2017-11-19T02:09:53.929Z,5.22
2017-11-19T02:12:28.312Z,5.18
2017-11-19T02:15:03.428Z,5.20
2017-11-19T02:17:38.114Z,5.13
2017-11-19T02:20:13.904Z,5.09
2017-11-19T02:22:48.252Z,5.10
2017-11-19T02:25:23.161Z,5.14
2017-11-19T02:27:57.893Z,5.17
2017-11-19T02:30:32.762Z,5.22
2017-11-19T02:33:07.457Z,5.24
2017-11-19T02:35:42.173Z,5.25
2017-11-19T02:38:17.319Z,5.29
2017-11-19T02:40:52.063Z,5.31
2017-11-19T02:43:26.849Z,5.29
2017-11-19T02:46:01.667Z,5.26
2017-11-19T02:48:36.497Z,5.33
2017-11-19T02:51:11.340Z,5.34
2017-11-19T02:53:46.109Z,5.40
2017-11-19T02:56:20.821Z,5.45
2017-11-19T02:58:55.427Z,5.44
2017-11-19T03:01:31.459Z,5.41
2017-11-19T03:04:05.901Z,5.43
2017-11-19T03:06:41.789Z,5.42
2017-11-19T03:09:16.375Z,5.36
2017-11-19T03:11:51.346Z,5.50
2017-11-19T03:14:26.387Z,5.54
2017-11-19T03:17:01.129Z,5.57
2017-11-19T03:19:35.905Z,5.60
2017-11-19T03:22:10.862Z,5.59
2017-11-19T03:24:45.286Z,5.59
2017-11-19T03:27:20.212Z,5.64
2017-11-19T03:29:54.894Z,5.65
2017-11-19T03:32:29.797Z,5.67
2017-11-19T03:35:04.897Z,5.66
2017-11-19T03:37:40.127Z,5.65
2017-11-19T03:40:15.133Z,5.68
2017-11-19T03:42:49.820Z,5.67
2017-11-19T03:45:24.857Z,5.65
2017-11-19T03:47:59.604Z,5.66
2017-11-19T03:50:33.997Z,5.64
2017-11-19T03:53:09.214Z,5.64
2017-11-19T03:55:43.984Z,5.66
2017-11-19T03:58:18.917Z,5.60
2017-11-19T04:00:53.869Z,5.51
2017-11-19T04:03:28.773Z,5.49
2017-11-19T04:06:03.693Z,5.47
2017-11-19T04:08:38.462Z,5.43
2017-11-19T04:11:13.403Z,5.40
2017-11-19T04:13:48.209Z,5.39
2017-11-19T04:16:23.157Z,5.41
2017-11-19T04:18:57.845Z,5.39
2017-11-19T04:21:32.565Z,5.36
2017-11-19T04:24:07.325Z,5.34
2017-11-19T04:26:41.789Z,5.34
2017-11-19T04:29:16.678Z,5.31
2017-11-19T04:31:51.073Z,5.29
2017-11-19T04:34:26.005Z,5.31
2017-11-19T04:37:00.737Z,5.36
2017-11-19T04:39:35.463Z,5.36
2017-11-19T04:42:10.193Z,5.36
2017-11-19T04:44:44.925Z,5.41
2017-11-19T04:47:19.693Z,5.43
2017-11-19T04:49:54.305Z,5.46
2017-11-19T04:52:29.000Z,5.50
2017-11-19T04:55:03.761Z,5.55
2017-11-19T04:57:38.153Z,5.50
2017-11-19T05:00:13.101Z,5.53
2017-11-19T05:02:47.817Z,5.53
2017-11-19T05:05:22.569Z,5.45
2017-11-19T05:07:57.170Z,5.39
2017-11-19T05:10:32.294Z,5.35
2017-11-19T05:13:06.880Z,5.39
2017-11-19T05:15:41.594Z,5.38
2017-11-19T05:18:16.625Z,5.33
2017-11-19T05:20:51.469Z,5.34
2017-11-19T05:23:26.395Z,5.36
2017-11-19T05:26:01.322Z,5.37
2017-11-19T05:28:36.268Z,5.41
2017-11-19T05:31:11.156Z,5.43
2017-11-19T05:33:45.929Z,5.48
2017-11-19T05:36:20.785Z,5.48
2017-11-19T05:38:55.125Z,5.44
2017-11-19T05:41:30.075Z,5.41
2017-11-19T05:44:04.699Z,5.31
2017-11-19T05:46:39.538Z,5.35
2017-11-19T05:49:14.470Z,5.36
2017-11-19T05:51:49.314Z,5.37
2017-11-19T05:54:24.157Z,5.37
2017-11-19T05:56:58.857Z,5.36
2017-11-19T05:59:33.769Z,5.36
2017-11-19T06:02:08.564Z,5.34
2017-11-19T06:04:43.393Z,5.33
2017-11-19T06:07:17.973Z,5.32
2017-11-19T06:09:52.657Z,5.37
2017-11-19T06:12:27.259Z,5.38
2017-11-19T06:15:02.078Z,5.41
2017-11-19T06:17:36.886Z,5.40
2017-11-19T06:20:11.732Z,5.39
2017-11-19T06:22:46.602Z,5.42
2017-11-19T06:25:21.448Z,5.44
2017-11-19T06:27:56.249Z,5.45
2017-11-19T06:30:30.617Z,5.44
2017-11-19T06:33:05.585Z,5.42
2017-11-19T06:35:40.529Z,5.45
2017-11-19T06:38:15.337Z,5.41
2017-11-19T06:40:51.213Z,5.41
2017-11-19T06:43:25.916Z,5.40
2017-11-19T06:46:00.333Z,5.39
2017-11-19T06:48:34.941Z,5.39
2017-11-19T06:51:09.522Z,5.43
2017-11-19T06:53:44.457Z,5.44
2017-11-19T06:56:19.181Z,5.44
2017-11-19T06:58:54.013Z,5.47
2017-11-19T07:01:28.857Z,5.45
2017-11-19T07:04:03.779Z,5.45
2017-11-19T07:06:38.390Z,5.44
2017-11-19T07:09:13.170Z,5.47
2017-11-19T07:11:48.066Z,5.49
2017-11-19T07:14:22.829Z,5.51
2017-11-19T07:16:57.749Z,5.56
2017-11-19T07:19:32.451Z,5.58
2017-11-19T07:22:06.881Z,5.57
2017-11-19T07:24:41.729Z,5.56
2017-11-19T07:27:16.222Z,5.59
2017-11-19T07:29:51.029Z,5.63
2017-11-19T07:32:25.418Z,5.68
2017-11-19T07:35:00.414Z,5.72
2017-11-19T07:37:34.988Z,5.82
2017-11-19T07:40:09.846Z,5.89
2017-11-19T07:42:44.789Z,5.84
2017-11-19T07:45:19.420Z,6.00
2017-11-19T07:47:54.241Z,6.00
2017-11-19T07:50:28.758Z,5.97
2017-11-19T07:53:03.257Z,6.01
2017-11-19T07:55:38.441Z,6.04
2017-11-19T07:58:13.864Z,6.01
2017-11-19T08:00:47.927Z,6.01
2017-11-19T08:03:22.693Z,6.04
2017-11-19T08:05:57.049Z,6.02
2017-11-19T08:08:32.209Z,6.06
2017-11-19T08:11:06.932Z,6.07
2017-11-19T08:13:41.761Z,6.16
2017-11-19T08:16:16.608Z,6.18
2017-11-19T08:18:51.530Z,6.16
2017-11-19T08:21:26.738Z,6.16
2017-11-19T08:24:01.282Z,6.08
2017-11-19T08:26:36.273Z,6.03
2017-11-19T08:29:11.085Z,6.05
2017-11-19T08:31:45.981Z,6.14
2017-11-19T08:34:20.721Z,6.18
2017-11-19T08:36:55.433Z,6.23
2017-11-19T08:39:30.246Z,6.26
2017-11-19T08:42:04.585Z,6.36
2017-11-19T08:44:39.601Z,6.40
2017-11-19T08:47:14.473Z,6.47
2017-11-19T08:49:49.164Z,6.45
2017-11-19T08:52:23.905Z,6.43
2017-11-19T08:54:58.793Z,6.43
2017-11-19T08:57:33.696Z,6.50
2017-11-19T09:00:08.337Z,6.54
2017-11-19T09:02:43.522Z,6.59
2017-11-19T09:05:18.705Z,6.66
2017-11-19T09:07:53.613Z,6.73
2017-11-19T09:10:28.535Z,6.72
2017-11-19T09:13:03.257Z,6.68
2017-11-19T09:15:38.229Z,6.58
2017-11-19T09:18:13.345Z,6.55
2017-11-19T09:20:48.249Z,6.55
2017-11-19T09:23:23.272Z,6.59
2017-11-19T09:25:58.133Z,6.66
2017-11-19T09:28:32.902Z,6.80
2017-11-19T09:31:07.781Z,6.98
2017-11-19T09:33:42.629Z,7.13
2017-11-19T09:36:17.370Z,7.18
2017-11-19T09:38:52.569Z,7.12
2017-11-19T09:41:27.461Z,7.03
2017-11-19T09:44:02.369Z,6.99
2017-11-19T09:46:37.486Z,6.89
2017-11-19T09:49:12.853Z,6.87
2017-11-19T09:51:47.705Z,6.82
2017-11-19T09:54:22.638Z,6.84
2017-11-19T09:56:57.689Z,6.89
2017-11-19T09:59:32.496Z,7.03
2017-11-19T10:02:07.300Z,7.16
2017-11-19T10:04:41.993Z,7.29
2017-11-19T10:07:16.977Z,7.36
2017-11-19T10:09:51.706Z,7.41
2017-11-19T10:12:26.514Z,7.43
2017-11-19T10:15:01.285Z,7.42
2017-11-19T10:17:36.301Z,7.49
2017-11-19T10:20:11.045Z,7.56
2017-11-19T10:22:45.970Z,7.56
2017-11-19T10:25:21.030Z,7.60
2017-11-19T10:27:56.013Z,7.62
2017-11-19T10:30:30.881Z,7.66
2017-11-19T10:33:05.790Z,7.66
2017-11-19T10:35:40.932Z,7.67
2017-11-19T10:38:15.653Z,7.72
2017-11-19T10:40:50.623Z,7.74
2017-11-19T10:43:25.549Z,7.86
2017-11-19T10:46:00.750Z,7.86
2017-11-19T10:48:35.354Z,8.06
2017-11-19T10:51:10.056Z,8.24
2017-11-19T10:53:45.061Z,8.31
2017-11-19T10:56:19.898Z,8.36
2017-11-19T10:58:54.922Z,8.53
2017-11-19T11:01:29.589Z,8.78
2017-11-19T11:04:04.379Z,8.96
2017-11-19T11:06:39.244Z,9.04
2017-11-19T11:09:14.475Z,9.15
2017-11-19T11:11:50.204Z,9.15
2017-11-19T11:14:25.434Z,9.14
2017-11-19T11:17:00.385Z,9.13
2017-11-19T11:19:35.105Z,9.08
2017-11-19T11:22:09.790Z,8.89
2017-11-19T11:24:44.209Z,8.93
2017-11-19T11:27:19.328Z,8.96
2017-11-19T11:29:54.129Z,8.90
2017-11-19T11:32:28.945Z,8.84
2017-11-19T11:35:03.716Z,8.91
2017-11-19T11:37:38.406Z,8.99
2017-11-19T11:40:12.841Z,9.12
2017-11-19T11:42:47.967Z,9.36
2017-11-19T11:45:23.016Z,9.53
2017-11-19T11:47:57.774Z,9.70
2017-11-19T11:50:32.796Z,9.82
2017-11-19T11:53:07.805Z,9.88
2017-11-19T11:55:42.574Z,10.08
2017-11-19T11:58:17.196Z,10.24
2017-11-19T12:00:52.685Z,10.23
2017-11-19T12:03:27.436Z,10.19
2017-11-19T12:06:02.421Z,10.19
2017-11-19T12:08:37.525Z,10.20
2017-11-19T12:11:12.446Z,10.29
2017-11-19T12:13:47.381Z,10.50
2017-11-19T12:16:22.249Z,10.65
2017-11-19T12:18:57.064Z,10.79
2017-11-19T12:21:32.285Z,10.84
2017-11-19T12:24:07.314Z,10.65
2017-11-19T12:26:42.309Z,10.33
2017-11-19T12:29:16.837Z,10.04
2017-11-19T12:31:51.685Z,9.75
2017-11-19T12:34:26.766Z,9.67
2017-11-19T12:37:01.700Z,9.68
2017-11-19T12:39:36.733Z,9.74
2017-11-19T12:42:11.775Z,9.58
2017-11-19T12:44:46.466Z,9.44
2017-11-19T12:47:21.241Z,9.40
2017-11-19T12:49:56.201Z,9.48
2017-11-19T12:52:30.898Z,9.52
2017-11-19T12:55:05.885Z,9.36
2017-11-19T12:57:40.725Z,9.32
2017-11-19T13:00:15.149Z,9.23
2017-11-19T13:02:50.529Z,9.17
2017-11-19T13:05:25.421Z,9.11
2017-11-19T13:08:00.676Z,9.15
2017-11-19T13:10:35.029Z,9.10
2017-11-19T13:13:10.343Z,9.05
2017-11-19T13:15:45.254Z,9.09
2017-11-19T13:18:19.917Z,9.29
2017-11-19T13:20:54.861Z,9.47
2017-11-19T13:23:29.953Z,9.61
2017-11-19T13:26:04.790Z,9.63
2017-11-19T13:28:39.969Z,9.69
2017-11-19T13:31:14.877Z,9.70
2017-11-19T13:33:50.221Z,9.76
2017-11-19T13:36:25.258Z,9.87
2017-11-19T13:39:00.238Z,9.87
2017-11-19T13:41:35.422Z,9.80
2017-11-19T13:44:09.534Z,9.83
2017-11-19T13:46:44.694Z,9.87
2017-11-19T13:49:19.613Z,9.75
2017-11-19T13:51:54.328Z,9.66
2017-11-19T13:54:29.276Z,9.59
2017-11-19T13:57:04.029Z,9.65
2017-11-19T13:59:39.035Z,9.69
2017-11-19T14:02:14.094Z,9.68
2017-11-19T14:04:48.814Z,9.76
2017-11-19T14:07:23.845Z,9.79
2017-11-19T14:09:58.848Z,9.85
2017-11-19T14:12:33.624Z,9.83
2017-11-19T14:15:08.855Z,9.81
2017-11-19T14:17:44.208Z,9.80
2017-11-19T14:20:19.133Z,9.81
2017-11-19T14:22:54.381Z,9.75
2017-11-19T14:25:29.773Z,9.67
2017-11-19T14:28:04.850Z,9.63
2017-11-19T14:30:39.736Z,9.63
2017-11-19T14:33:14.497Z,9.58
2017-11-19T14:35:49.369Z,9.52
2017-11-19T14:38:24.185Z,9.51
2017-11-19T14:40:58.936Z,9.49
2017-11-19T14:43:33.643Z,9.48
2017-11-19T14:46:08.337Z,9.36
2017-11-19T14:48:43.327Z,9.25
2017-11-19T14:51:18.137Z,9.27
2017-11-19T14:53:53.073Z,9.22
2017-11-19T14:56:28.274Z,9.19
2017-11-19T14:59:02.954Z,9.14
2017-11-19T15:01:37.849Z,9.07
2017-11-19T15:04:12.820Z,9.10
2017-11-19T15:06:47.606Z,9.10
2017-11-19T15:09:22.745Z,8.99
2017-11-19T15:11:57.505Z,8.87
2017-11-19T15:14:32.869Z,8.81
2017-11-19T15:17:08.192Z,8.75
2017-11-19T15:19:43.092Z,8.78
2017-11-19T15:22:17.851Z,8.82
2017-11-19T15:24:52.627Z,8.73
2017-11-19T15:27:27.513Z,8.62
2017-11-19T15:30:02.413Z,8.57
2017-11-19T15:32:37.381Z,8.56
2017-11-19T15:35:12.289Z,8.60
2017-11-19T15:37:47.329Z,8.61
2017-11-19T15:40:22.393Z,8.58
2017-11-19T15:42:57.305Z,8.58
2017-11-19T15:45:32.854Z,8.50
2017-11-19T15:48:08.085Z,8.47
2017-11-19T15:50:43.153Z,8.44
2017-11-19T15:53:18.065Z,8.39
2017-11-19T15:55:52.889Z,8.40
2017-11-19T15:58:27.848Z,8.33
2017-11-19T16:01:02.664Z,8.30
2017-11-19T16:03:37.498Z,8.26
2017-11-19T16:06:12.323Z,8.25
2017-11-19T16:08:48.760Z,8.24
2017-11-19T16:11:23.400Z,8.27
2017-11-19T16:13:58.356Z,8.30
2017-11-19T16:16:33.196Z,8.29
2017-11-19T16:19:07.994Z,8.24
2017-11-19T16:21:43.145Z,8.22
2017-11-19T16:24:17.872Z,8.21
2017-11-19T16:26:52.733Z,8.25
2017-11-19T16:29:27.321Z,8.28
2017-11-19T16:32:02.485Z,8.31
2017-11-19T16:34:37.637Z,8.32
2017-11-19T16:37:12.818Z,8.23
2017-11-19T16:39:47.856Z,8.11
2017-11-19T16:42:22.672Z,7.98
2017-11-19T16:44:57.501Z,7.92
2017-11-19T16:47:32.381Z,7.85
2017-11-19T16:50:07.110Z,7.79
2017-11-19T16:52:42.264Z,7.74
2017-11-19T16:55:17.061Z,7.84
2017-11-19T16:57:51.917Z,7.87
2017-11-19T17:00:27.068Z,7.95
2017-11-19T17:03:01.897Z,7.99
2017-11-19T17:05:36.853Z,8.04
2017-11-19T17:08:12.272Z,8.04
2017-11-19T17:10:47.316Z,7.95
2017-11-19T17:13:22.229Z,7.92
2017-11-19T17:15:57.264Z,7.88
2017-11-19T17:18:32.290Z,7.85
2017-11-19T17:21:07.259Z,7.81
2017-11-19T17:23:41.959Z,7.75
2017-11-19T17:26:16.869Z,7.70
2017-11-19T17:28:51.826Z,7.67
2017-11-19T17:31:26.681Z,7.69
2017-11-19T17:34:01.466Z,7.61
2017-11-19T17:36:36.304Z,7.51
2017-11-19T17:39:11.367Z,7.47
2017-11-19T17:41:46.407Z,7.50
2017-11-19T17:44:21.610Z,7.51
2017-11-19T17:46:56.258Z,7.55
2017-11-19T17:49:31.208Z,7.60
2017-11-19T17:52:06.232Z,7.69
2017-11-19T17:54:40.857Z,7.77
2017-11-19T17:57:16.242Z,7.81
2017-11-19T17:59:51.043Z,7.76
2017-11-19T18:02:26.249Z,7.75
2017-11-19T18:05:01.081Z,7.72
2017-11-19T18:07:37.957Z,7.62
2017-11-19T18:10:12.805Z,7.47
2017-11-19T18:12:47.862Z,7.34
2017-11-19T18:15:22.800Z,7.31
2017-11-19T18:17:57.518Z,7.28
2017-11-19T18:20:32.393Z,7.25
2017-11-19T18:23:07.334Z,7.25
2017-11-19T18:25:41.803Z,7.27
2017-11-19T18:28:17.041Z,7.37
2017-11-19T18:30:51.974Z,7.46
2017-11-19T18:33:39.325Z,7.42
2017-11-19T18:36:14.623Z,7.44
2017-11-19T18:38:52.342Z,7.49
2017-11-19T18:41:27.461Z,7.46
2017-11-19T18:44:02.405Z,7.45
2017-11-19T18:46:38.255Z,7.48
2017-11-19T18:49:13.320Z,7.44
2017-11-19T18:51:47.989Z,7.39
2017-11-19T18:54:23.669Z,7.47
2017-11-19T18:56:58.689Z,7.51
2017-11-19T18:59:33.378Z,7.53
2017-11-19T19:02:08.769Z,7.52
2017-11-19T19:04:43.500Z,7.43
2017-11-19T19:07:18.332Z,7.43
2017-11-19T19:09:53.276Z,7.35
2017-11-19T19:12:28.610Z,7.35
2017-11-19T19:15:03.252Z,7.31
2017-11-19T19:17:38.377Z,7.27
2017-11-19T19:20:17.754Z,7.23
2017-11-19T19:22:53.120Z,7.19
2017-11-19T19:25:28.522Z,7.09
2017-11-19T19:28:04.542Z,7.05
2017-11-19T19:30:39.480Z,7.01
2017-11-19T19:33:14.657Z,6.92
2017-11-19T19:35:49.545Z,6.92
2017-11-19T19:38:24.324Z,6.85
2017-11-19T19:40:59.225Z,6.85
2017-11-19T19:43:34.064Z,6.87
2017-11-19T19:46:08.805Z,6.89
2017-11-19T19:48:43.736Z,6.81
2017-11-19T19:51:18.437Z,6.82
2017-11-19T19:53:53.245Z,6.81
2017-11-19T19:56:28.034Z,6.79
2017-11-19T19:59:03.158Z,6.72
2017-11-19T20:01:38.002Z,6.70
2017-11-19T20:04:13.033Z,6.65
2017-11-19T20:06:47.986Z,6.68
2017-11-19T20:09:22.720Z,6.70
2017-11-19T20:11:57.621Z,6.76
2017-11-19T20:14:32.473Z,6.79
2017-11-19T20:17:07.401Z,6.82
2017-11-19T20:19:42.301Z,6.89
2017-11-19T20:22:17.371Z,6.91
2017-11-19T20:24:51.637Z,6.82
2017-11-19T20:27:26.965Z,6.83
2017-11-19T20:30:03.205Z,6.88
2017-11-19T20:32:38.037Z,6.86
2017-11-19T20:35:13.045Z,6.78
2017-11-19T20:37:47.969Z,6.63
2017-11-19T20:40:23.101Z,6.69
2017-11-19T20:42:57.901Z,6.72
2017-11-19T20:45:32.980Z,6.73
2017-11-19T20:48:07.806Z,6.75
2017-11-19T20:50:42.377Z,6.69
2017-11-19T20:53:17.380Z,6.59
2017-11-19T20:55:52.295Z,6.57
2017-11-19T20:58:26.972Z,6.59
2017-11-19T21:01:02.488Z,6.62
2017-11-19T21:03:37.416Z,6.65
2017-11-19T21:06:12.241Z,6.68
2017-11-19T21:08:47.727Z,6.71
2017-11-19T21:11:22.800Z,6.70
2017-11-19T21:13:57.655Z,6.66
2017-11-19T21:16:32.604Z,6.62
2017-11-19T21:19:07.520Z,6.67
2017-11-19T21:21:42.564Z,6.68
2017-11-19T21:24:17.398Z,6.71
2017-11-19T21:26:52.112Z,6.70
2017-11-19T21:29:27.278Z,6.69
2017-11-19T21:32:02.100Z,6.69
2017-11-19T21:34:37.025Z,6.62
2017-11-19T21:37:11.876Z,6.54
2017-11-19T21:39:46.585Z,6.54
2017-11-19T21:42:21.864Z,6.56
2017-11-19T21:44:56.848Z,6.57
2017-11-19T21:47:31.881Z,6.61
2017-11-19T21:50:06.774Z,6.62
2017-11-19T21:52:41.641Z,6.66
2017-11-19T21:55:16.562Z,6.66
2017-11-19T21:57:50.998Z,6.65
2017-11-19T22:00:26.184Z,6.71
2017-11-19T22:03:01.009Z,6.72
2017-11-19T22:05:35.929Z,6.73
2017-11-19T22:08:10.845Z,6.75
2017-11-19T22:10:45.217Z,6.75
2017-11-19T22:13:20.425Z,6.74
2017-11-19T22:15:55.140Z,6.66
2017-11-19T22:18:29.961Z,6.62
2017-11-19T22:21:05.151Z,6.55
2017-11-19T22:23:40.037Z,6.86
2017-11-19T22:26:15.169Z,7.35
2017-11-19T22:28:50.046Z,7.44
2017-11-19T22:31:25.100Z,7.20
2017-11-19T22:34:00.096Z,6.98
2017-11-19T22:36:34.881Z,6.80
2017-11-19T22:39:09.885Z,6.68
2017-11-19T22:41:45.018Z,6.53
2017-11-19T22:44:19.945Z,6.45
2017-11-19T22:46:54.910Z,6.39
2017-11-19T22:49:29.828Z,6.37
2017-11-19T22:52:04.268Z,6.35
2017-11-19T22:54:39.349Z,6.31
2017-11-19T22:57:14.209Z,6.28
2017-11-19T22:59:49.058Z,6.32
2017-11-19T23:02:24.169Z,6.30
2017-11-19T23:04:59.012Z,6.23
2017-11-19T23:07:34.037Z,6.25
2017-11-19T23:10:08.925Z,6.27
2017-11-19T23:12:43.600Z,6.26
2017-11-19T23:15:18.529Z,6.25
2017-11-19T23:17:53.213Z,6.20
2017-11-19T23:20:27.904Z,6.14
2017-11-19T23:23:02.694Z,6.10
2017-11-19T23:25:37.584Z,6.10
2017-11-19T23:28:12.440Z,6.10
2017-11-19T23:30:47.077Z,6.10
2017-11-19T23:33:22.277Z,6.10
2017-11-19T23:35:57.100Z,6.09
2017-11-19T23:38:31.980Z,6.13
2017-11-19T23:41:06.756Z,6.17
2017-11-19T23:43:41.736Z,6.14
2017-11-19T23:46:16.588Z,6.13
2017-11-19T23:48:51.345Z,6.11
2017-11-19T23:51:26.474Z,6.17
2017-11-19T23:54:01.697Z,6.22
2017-11-19T23:56:36.572Z,6.25
2017-11-19T23:59:11.458Z,6.22
